DLH117 EGGP-MYAK
Flight info
| Callsign | DLH117 |
|---|---|
| Flight time | N/A |
| Altitude | 33000 |
| Route | WAL L10 PENIL M144 BAGSO DCT MALOT/M081F380 NATD RIKAL/N0478F400 N566A TUSKY/M081F400 DCT SAVIK DCT STERN Y485 SAUCR DCT PADRK/N0463F400 DCT BAAGR G437 ELBOW DCT ZQA |
| Aircraft | A333/H-SDE3GHIJ2J3J5M1RVWXY/LB2D1 |
Departure
| Time | 2026-05-04 14:49 |
|---|---|
| Airport | Liverpool John Lennon Airport (EGGP) |
Arrival
| Time | N/A |
|---|---|
| Airport | Congo Town Airport (MYAK) |
| Time | Latitude | Longitude | Altitude | Speed | Heading |
|---|---|---|---|---|---|
| 2026-05-04 14:40 | 53.33570 | -2.85437 | 98 ft | 0 kts | 87° |
| 2026-05-04 14:42 | 53.33570 | -2.85438 | 98 ft | 2 kts | 87° |
| 2026-05-04 14:43 | 53.33572 | -2.85471 | 98 ft | 3 kts | 129° |
| 2026-05-04 14:43 | 53.33588 | -2.85491 | 98 ft | 2 kts | 170° |
| 2026-05-04 14:43 | 53.33589 | -2.85491 | 98 ft | 0 kts | 170° |
| 2026-05-04 14:45 | 53.33582 | -2.85490 | 97 ft | 6 kts | 175° |
| 2026-05-04 14:46 | 53.33575 | -2.85490 | 98 ft | 0 kts | 177° |
| 2026-05-04 14:46 | 53.33565 | -2.85489 | 98 ft | 7 kts | 177° |
| 2026-05-04 14:46 | 53.33517 | -2.85419 | 99 ft | 14 kts | 112° |
| 2026-05-04 14:47 | 53.33521 | -2.85167 | 101 ft | 33 kts | 86° |
| 2026-05-04 14:47 | 53.33543 | -2.84659 | 99 ft | 53 kts | 85° |
| 2026-05-04 14:47 | 53.33576 | -2.84042 | 100 ft | 50 kts | 86° |
| 2026-05-04 14:47 | 53.33580 | -2.83654 | 102 ft | 9 kts | 124° |
| 2026-05-04 14:48 | 53.33499 | -2.83630 | 101 ft | 21 kts | 175° |
| 2026-05-04 14:48 | 53.33416 | -2.83656 | 101 ft | 2 kts | 248° |
| 2026-05-04 14:48 | 53.33417 | -2.83730 | 101 ft | 12 kts | 269° |
| 2026-05-04 14:48 | 53.33410 | -2.83941 | 99 ft | 25 kts | 265° |
| 2026-05-04 14:49 | 53.33382 | -2.84523 | 101 ft | 83 kts | 266° |
| 2026-05-04 14:49 | 53.33321 | -2.85911 | 104 ft | 154 kts | 266° |
| 2026-05-04 14:49 | 53.33245 | -2.87824 | 838 ft | 172 kts | 267° |
| 2026-05-04 14:49 | 53.33163 | -2.89900 | 1880 ft | 181 kts | 267° |
| 2026-05-04 14:50 | 53.33083 | -2.91941 | 3204 ft | 171 kts | 267° |
| 2026-05-04 14:50 | 53.33203 | -2.93860 | 4381 ft | 161 kts | 285° |
| 2026-05-04 14:50 | 53.33543 | -2.95615 | 5364 ft | 160 kts | 291° |
| 2026-05-04 14:50 | 53.34005 | -2.97409 | 6073 ft | 176 kts | 295° |
| 2026-05-04 14:51 | 53.34584 | -2.99326 | 6694 ft | 199 kts | 298° |
| 2026-05-04 14:51 | 53.35286 | -3.01491 | 7318 ft | 224 kts | 299° |
| 2026-05-04 14:51 | 53.36083 | -3.03887 | 7968 ft | 246 kts | 299° |
| 2026-05-04 14:51 | 53.36947 | -3.06492 | 8644 ft | 266 kts | 299° |
| 2026-05-04 14:52 | 53.37867 | -3.09296 | 9306 ft | 283 kts | 298° |
| 2026-05-04 14:52 | 53.38824 | -3.12233 | 9975 ft | 290 kts | 300° |
| 2026-05-04 14:52 | 53.39902 | -3.15095 | 10579 ft | 295 kts | 303° |
| 2026-05-04 14:52 | 53.41071 | -3.17968 | 11197 ft | 301 kts | 304° |
| 2026-05-04 14:53 | 53.42292 | -3.20846 | 11826 ft | 305 kts | 305° |
| 2026-05-04 14:53 | 53.43548 | -3.23754 | 12467 ft | 309 kts | 305° |
| 2026-05-04 14:53 | 53.44818 | -3.26688 | 13117 ft | 313 kts | 305° |
| 2026-05-04 14:53 | 53.46101 | -3.29662 | 13787 ft | 316 kts | 305° |
| 2026-05-04 14:54 | 53.47390 | -3.32668 | 14396 ft | 319 kts | 304° |
| 2026-05-04 14:54 | 53.48683 | -3.35702 | 15004 ft | 321 kts | 305° |
| 2026-05-04 14:54 | 53.49983 | -3.38762 | 15623 ft | 323 kts | 305° |
| 2026-05-04 14:54 | 53.51287 | -3.41840 | 16254 ft | 324 kts | 305° |
| 2026-05-04 14:55 | 53.52597 | -3.44939 | 16888 ft | 325 kts | 305° |
| 2026-05-04 14:55 | 53.53904 | -3.48036 | 17545 ft | 326 kts | 305° |
| 2026-05-04 14:55 | 53.55225 | -3.51168 | 18104 ft | 330 kts | 305° |
| 2026-05-04 14:55 | 53.56563 | -3.54345 | 18542 ft | 336 kts | 306° |
| 2026-05-04 14:56 | 53.57929 | -3.57591 | 18892 ft | 344 kts | 306° |
| 2026-05-04 14:56 | 53.59324 | -3.60909 | 19262 ft | 351 kts | 306° |
| 2026-05-04 14:56 | 53.60264 | -3.63147 | 19506 ft | 355 kts | 306° |
| 2026-05-04 14:56 | 53.61557 | -3.66742 | 19874 ft | 364 kts | 292° |
| 2026-05-04 14:57 | 53.62217 | -3.70890 | 20249 ft | 371 kts | 280° |
| 2026-05-04 14:57 | 53.62485 | -3.75249 | 20634 ft | 378 kts | 274° |
| 2026-05-04 14:57 | 53.62571 | -3.79705 | 21019 ft | 384 kts | 271° |
| 2026-05-04 14:57 | 53.62610 | -3.84228 | 21404 ft | 389 kts | 271° |
| 2026-05-04 14:58 | 53.62669 | -3.88822 | 21801 ft | 394 kts | 272° |
| 2026-05-04 14:58 | 53.62770 | -3.93461 | 22204 ft | 399 kts | 273° |
| 2026-05-04 14:58 | 53.62912 | -3.98167 | 22608 ft | 404 kts | 274° |
| 2026-05-04 14:58 | 53.63082 | -4.02921 | 23025 ft | 408 kts | 275° |
| 2026-05-04 14:59 | 53.63269 | -4.07714 | 23437 ft | 412 kts | 275° |
| 2026-05-04 14:59 | 53.63463 | -4.12561 | 23820 ft | 416 kts | 275° |
| 2026-05-04 14:59 | 53.63848 | -4.22302 | 24453 ft | 424 kts | 275° |
| 2026-05-04 15:00 | 53.64043 | -4.27360 | 24735 ft | 429 kts | 275° |
| 2026-05-04 15:00 | 53.64230 | -4.32327 | 25029 ft | 433 kts | 275° |
| 2026-05-04 15:00 | 53.64419 | -4.37421 | 25317 ft | 437 kts | 275° |
| 2026-05-04 15:01 | 53.64794 | -4.47743 | 25916 ft | 445 kts | 275° |
| 2026-05-04 15:01 | 53.64979 | -4.52973 | 26228 ft | 449 kts | 275° |
| 2026-05-04 15:01 | 53.65163 | -4.58241 | 26524 ft | 452 kts | 275° |
| 2026-05-04 15:01 | 53.65347 | -4.63542 | 26824 ft | 455 kts | 275° |
| 2026-05-04 15:02 | 53.65529 | -4.68885 | 27127 ft | 458 kts | 275° |
| 2026-05-04 15:02 | 53.65709 | -4.74268 | 27445 ft | 461 kts | 275° |
| 2026-05-04 15:02 | 53.65888 | -4.79670 | 27773 ft | 464 kts | 275° |
| 2026-05-04 15:02 | 53.66068 | -4.85112 | 28088 ft | 466 kts | 275° |
| 2026-05-04 15:03 | 53.66247 | -4.90590 | 28428 ft | 468 kts | 275° |
| 2026-05-04 15:03 | 53.66425 | -4.96084 | 28745 ft | 471 kts | 275° |
| 2026-05-04 15:03 | 53.66602 | -5.01608 | 29072 ft | 473 kts | 276° |
| 2026-05-04 15:03 | 53.66777 | -5.07154 | 29415 ft | 474 kts | 275° |
| 2026-05-04 15:04 | 53.66949 | -5.12723 | 29763 ft | 476 kts | 275° |
| 2026-05-04 15:04 | 53.67119 | -5.18321 | 30108 ft | 478 kts | 275° |
| 2026-05-04 15:04 | 53.67283 | -5.23922 | 30399 ft | 479 kts | 275° |
| 2026-05-04 15:04 | 53.67445 | -5.29546 | 30707 ft | 480 kts | 275° |
| 2026-05-04 15:05 | 53.67603 | -5.35170 | 30994 ft | 479 kts | 275° |
| 2026-05-04 15:05 | 53.67756 | -5.40702 | 31277 ft | 479 kts | 275° |
| 2026-05-04 15:05 | 53.67909 | -5.46317 | 31591 ft | 478 kts | 275° |
| 2026-05-04 15:05 | 53.67977 | -5.51923 | 31902 ft | 478 kts | 271° |
| 2026-05-04 15:06 | 53.67890 | -5.57537 | 32214 ft | 478 kts | 269° |
| 2026-05-04 15:06 | 53.67715 | -5.63139 | 32525 ft | 478 kts | 268° |
| 2026-05-04 15:06 | 53.67502 | -5.68743 | 32859 ft | 479 kts | 268° |
| 2026-05-04 15:07 | 53.67061 | -5.80048 | 33081 ft | 489 kts | 268° |
| 2026-05-04 15:07 | 53.66638 | -5.91647 | 33080 ft | 503 kts | 268° |
| 2026-05-04 15:08 | 53.66219 | -6.03489 | 33084 ft | 506 kts | 268° |
| 2026-05-04 15:08 | 53.65794 | -6.15323 | 33092 ft | 505 kts | 268° |
| 2026-05-04 15:09 | 53.65356 | -6.27158 | 33078 ft | 505 kts | 268° |
| 2026-05-04 15:09 | 53.64906 | -6.38960 | 33085 ft | 504 kts | 268° |
| 2026-05-04 15:10 | 53.64217 | -6.56514 | 33080 ft | 504 kts | 268° |
| 2026-05-04 15:11 | 53.63496 | -6.74173 | 33079 ft | 504 kts | 267° |
| 2026-05-04 15:11 | 53.63002 | -6.85934 | 33082 ft | 503 kts | 267° |
| 2026-05-04 15:12 | 53.62497 | -6.97678 | 33074 ft | 502 kts | 267° |
| 2026-05-04 15:12 | 53.61980 | -7.09416 | 33079 ft | 502 kts | 267° |
| 2026-05-04 15:13 | 53.61453 | -7.21143 | 33077 ft | 502 kts | 267° |
| 2026-05-04 15:13 | 53.60913 | -7.32890 | 33079 ft | 502 kts | 267° |
| 2026-05-04 15:14 | 53.60362 | -7.44602 | 33080 ft | 501 kts | 267° |
| 2026-05-04 15:14 | 53.59805 | -7.56209 | 33077 ft | 500 kts | 267° |
| 2026-05-04 15:15 | 53.59234 | -7.67874 | 33078 ft | 500 kts | 267° |
| 2026-05-04 15:15 | 53.58651 | -7.79549 | 33071 ft | 500 kts | 267° |
| 2026-05-04 15:16 | 53.57758 | -7.97002 | 33075 ft | 498 kts | 267° |
| 2026-05-04 15:17 | 53.56841 | -8.14426 | 33080 ft | 498 kts | 266° |
| 2026-05-04 15:17 | 53.55898 | -8.31862 | 33074 ft | 497 kts | 266° |
| 2026-05-04 15:18 | 53.55258 | -8.43408 | 33083 ft | 496 kts | 266° |
| 2026-05-04 15:19 | 53.54285 | -8.60614 | 33088 ft | 494 kts | 266° |
| 2026-05-04 15:19 | 53.53283 | -8.77887 | 33091 ft | 495 kts | 266° |
| 2026-05-04 15:20 | 53.52602 | -8.89383 | 33091 ft | 494 kts | 266° |
| 2026-05-04 15:20 | 53.51910 | -9.00859 | 33094 ft | 493 kts | 266° |
| 2026-05-04 15:21 | 53.51207 | -9.12343 | 33097 ft | 493 kts | 266° |
| 2026-05-04 15:22 | 53.50136 | -9.29504 | 33101 ft | 494 kts | 265° |
| 2026-05-04 15:22 | 53.49040 | -9.46649 | 33497 ft | 490 kts | 265° |
| 2026-05-04 15:23 | 53.48671 | -9.52330 | 33651 ft | 490 kts | 265° |
| 2026-05-04 15:23 | 53.48300 | -9.58013 | 33790 ft | 490 kts | 265° |
| 2026-05-04 15:23 | 53.47931 | -9.63612 | 33926 ft | 489 kts | 265° |
| 2026-05-04 15:23 | 53.47554 | -9.69295 | 34070 ft | 489 kts | 265° |
| 2026-05-04 15:24 | 53.46794 | -9.80628 | 34331 ft | 488 kts | 265° |
| 2026-05-04 15:24 | 53.46025 | -9.91934 | 34608 ft | 485 kts | 265° |
| 2026-05-04 15:25 | 53.45639 | -9.97558 | 34747 ft | 485 kts | 265° |
| 2026-05-04 15:25 | 53.45250 | -10.03179 | 34865 ft | 486 kts | 265° |
| 2026-05-04 15:25 | 53.44857 | -10.08814 | 34990 ft | 486 kts | 265° |
| 2026-05-04 15:26 | 53.44063 | -10.20079 | 35228 ft | 486 kts | 265° |
| 2026-05-04 15:26 | 53.43663 | -10.25704 | 35369 ft | 486 kts | 264° |
| 2026-05-04 15:26 | 53.42855 | -10.36955 | 35595 ft | 485 kts | 264° |
| 2026-05-04 15:27 | 53.42447 | -10.42569 | 35755 ft | 484 kts | 264° |
| 2026-05-04 15:27 | 53.41626 | -10.53762 | 36010 ft | 484 kts | 264° |
| 2026-05-04 15:28 | 53.40799 | -10.64891 | 36264 ft | 484 kts | 264° |
| 2026-05-04 15:28 | 53.40379 | -10.70495 | 36395 ft | 484 kts | 264° |
| 2026-05-04 15:28 | 53.39532 | -10.81673 | 36830 ft | 482 kts | 264° |
| 2026-05-04 15:29 | 53.39107 | -10.87232 | 37092 ft | 481 kts | 264° |
| 2026-05-04 15:30 | 53.36041 | -11.26351 | 37389 ft | 484 kts | 264° |
| 2026-05-04 15:31 | 53.35142 | -11.37512 | 37658 ft | 484 kts | 264° |
| 2026-05-04 15:31 | 53.34689 | -11.43075 | 37818 ft | 482 kts | 263° |
| 2026-05-04 15:32 | 53.33320 | -11.59722 | 38252 ft | 482 kts | 263° |
| 2026-05-04 15:32 | 53.32399 | -11.70755 | 38543 ft | 482 kts | 263° |
| 2026-05-04 15:33 | 53.31463 | -11.81853 | 38824 ft | 482 kts | 263° |
| 2026-05-04 15:34 | 53.30042 | -11.98444 | 39202 ft | 479 kts | 263° |
| 2026-05-04 15:34 | 53.29565 | -12.03953 | 39319 ft | 479 kts | 263° |
| 2026-05-04 15:34 | 53.28601 | -12.14990 | 39551 ft | 480 kts | 263° |
| 2026-05-04 15:35 | 53.27626 | -12.26040 | 39788 ft | 480 kts | 263° |
| 2026-05-04 15:35 | 53.27135 | -12.31558 | 39899 ft | 480 kts | 262° |
| 2026-05-04 15:35 | 53.26641 | -12.37075 | 40021 ft | 481 kts | 263° |
| 2026-05-04 15:36 | 53.25645 | -12.48123 | 40158 ft | 480 kts | 263° |
| 2026-05-04 15:36 | 53.24645 | -12.59088 | 40160 ft | 475 kts | 263° |
| 2026-05-04 15:37 | 53.23636 | -12.70046 | 40161 ft | 480 kts | 262° |
| 2026-05-04 15:37 | 53.22610 | -12.81067 | 40164 ft | 481 kts | 263° |
| 2026-05-04 15:38 | 53.21582 | -12.92006 | 40159 ft | 480 kts | 262° |
| 2026-05-04 15:38 | 53.20539 | -13.02974 | 40162 ft | 478 kts | 262° |
| 2026-05-04 15:39 | 53.19488 | -13.13915 | 40165 ft | 477 kts | 262° |
| 2026-05-04 15:40 | 53.17896 | -13.30306 | 40170 ft | 477 kts | 262° |
| 2026-05-04 15:40 | 53.16820 | -13.41232 | 40165 ft | 477 kts | 262° |
| 2026-05-04 15:41 | 53.15739 | -13.52123 | 40170 ft | 476 kts | 262° |
| 2026-05-04 15:41 | 53.14648 | -13.63000 | 40169 ft | 476 kts | 262° |
| 2026-05-04 15:42 | 53.13547 | -13.73867 | 40178 ft | 475 kts | 261° |
| 2026-05-04 15:42 | 53.12437 | -13.84727 | 40175 ft | 476 kts | 261° |
| 2026-05-04 15:43 | 53.11508 | -13.93741 | 40175 ft | 474 kts | 261° |
| 2026-05-04 15:43 | 53.10200 | -14.06303 | 40178 ft | 473 kts | 261° |
| 2026-05-04 15:44 | 53.09257 | -14.15283 | 40185 ft | 473 kts | 261° |
| 2026-05-04 15:44 | 53.08116 | -14.26056 | 40183 ft | 473 kts | 262° |
| 2026-05-04 15:45 | 53.06964 | -14.36841 | 40181 ft | 473 kts | 261° |
| 2026-05-04 15:45 | 53.05804 | -14.47596 | 40185 ft | 472 kts | 261° |
| 2026-05-04 15:46 | 53.04635 | -14.58340 | 40189 ft | 472 kts | 261° |
| 2026-05-04 15:46 | 53.03457 | -14.69080 | 40192 ft | 472 kts | 260° |
| 2026-05-04 15:47 | 53.02270 | -14.79804 | 40190 ft | 472 kts | 261° |
| 2026-05-04 15:47 | 53.01074 | -14.90516 | 40196 ft | 472 kts | 261° |
| 2026-05-04 15:48 | 53.00112 | -15.01264 | 40202 ft | 469 kts | 274° |
| 2026-05-04 15:48 | 53.00625 | -15.06570 | 40199 ft | 466 kts | 287° |
| 2026-05-04 15:48 | 53.03039 | -15.16490 | 40192 ft | 467 kts | 295° |
| 2026-05-04 15:49 | 53.05722 | -15.26321 | 40205 ft | 467 kts | 293° |
| 2026-05-04 15:49 | 53.08164 | -15.36342 | 40205 ft | 468 kts | 291° |
| 2026-05-04 15:50 | 53.10439 | -15.46483 | 40191 ft | 468 kts | 290° |
| 2026-05-04 15:50 | 53.12666 | -15.56669 | 40203 ft | 468 kts | 290° |
| 2026-05-04 15:51 | 53.14887 | -15.66860 | 40191 ft | 467 kts | 290° |
| 2026-05-04 15:51 | 53.17105 | -15.77039 | 40201 ft | 467 kts | 290° |
| 2026-05-04 15:52 | 53.19314 | -15.87207 | 40205 ft | 466 kts | 290° |
| 2026-05-04 15:52 | 53.21513 | -15.97371 | 40193 ft | 465 kts | 290° |
| 2026-05-04 15:53 | 53.23701 | -16.07544 | 40214 ft | 466 kts | 290° |
| 2026-05-04 15:53 | 53.25867 | -16.17665 | 40198 ft | 466 kts | 290° |
| 2026-05-04 15:54 | 53.28037 | -16.27854 | 40218 ft | 465 kts | 290° |
| 2026-05-04 15:54 | 53.30194 | -16.38035 | 40206 ft | 464 kts | 290° |
| 2026-05-04 15:55 | 53.32341 | -16.48213 | 40218 ft | 465 kts | 290° |
| 2026-05-04 15:55 | 53.34483 | -16.58426 | 40207 ft | 465 kts | 289° |
| 2026-05-04 15:56 | 53.36617 | -16.68651 | 40222 ft | 465 kts | 289° |
| 2026-05-04 15:56 | 53.38742 | -16.78883 | 40205 ft | 464 kts | 289° |
| 2026-05-04 15:57 | 53.40855 | -16.89118 | 40207 ft | 464 kts | 289° |
| 2026-05-04 15:57 | 53.42956 | -16.99339 | 40213 ft | 463 kts | 289° |
| 2026-05-04 15:58 | 53.45052 | -17.09584 | 40211 ft | 464 kts | 289° |
| 2026-05-04 15:58 | 53.47142 | -17.19857 | 40231 ft | 466 kts | 289° |
| 2026-05-04 15:59 | 53.49223 | -17.30144 | 40219 ft | 465 kts | 289° |
| 2026-05-04 15:59 | 53.51297 | -17.40449 | 40228 ft | 465 kts | 289° |
| 2026-05-04 16:00 | 53.53345 | -17.50674 | 40231 ft | 464 kts | 289° |
| 2026-05-04 16:00 | 53.55396 | -17.60972 | 40235 ft | 465 kts | 289° |
| 2026-05-04 16:01 | 53.57442 | -17.71297 | 40236 ft | 465 kts | 289° |
| 2026-05-04 16:01 | 53.59480 | -17.81640 | 40237 ft | 466 kts | 289° |
| 2026-05-04 16:02 | 53.61511 | -17.91996 | 40229 ft | 466 kts | 288° |
| 2026-05-04 16:03 | 53.64531 | -18.07508 | 40242 ft | 464 kts | 288° |
| 2026-05-04 16:03 | 53.66539 | -18.17887 | 40242 ft | 465 kts | 288° |
| 2026-05-04 16:04 | 53.68536 | -18.28270 | 40242 ft | 466 kts | 288° |
| 2026-05-04 16:04 | 53.71503 | -18.43797 | 40250 ft | 465 kts | 288° |
| 2026-05-04 16:05 | 53.73478 | -18.54204 | 40249 ft | 465 kts | 288° |
| 2026-05-04 16:06 | 53.76418 | -18.69805 | 40251 ft | 464 kts | 288° |
| 2026-05-04 16:07 | 53.80311 | -18.90666 | 40252 ft | 464 kts | 288° |
| 2026-05-04 16:08 | 53.84150 | -19.11463 | 40257 ft | 464 kts | 288° |
| 2026-05-04 16:09 | 53.88910 | -19.37584 | 40261 ft | 463 kts | 287° |
| 2026-05-04 16:10 | 53.92668 | -19.58475 | 40267 ft | 463 kts | 287° |
| 2026-05-04 16:11 | 53.96383 | -19.79359 | 40273 ft | 464 kts | 287° |
| 2026-05-04 16:12 | 54.00747 | -20.11290 | 40274 ft | 465 kts | 274° |
| 2026-05-04 16:13 | 54.01374 | -20.33277 | 40282 ft | 465 kts | 274° |
| 2026-05-04 16:14 | 54.02171 | -20.55236 | 40290 ft | 465 kts | 274° |
| 2026-05-04 16:16 | 54.03162 | -20.82641 | 40288 ft | 465 kts | 274° |
| 2026-05-04 16:17 | 54.04083 | -21.10123 | 40291 ft | 465 kts | 274° |
| 2026-05-04 16:18 | 54.04776 | -21.32129 | 40303 ft | 466 kts | 274° |
| 2026-05-04 16:19 | 54.05585 | -21.59659 | 40300 ft | 466 kts | 274° |
| 2026-05-04 16:20 | 54.06330 | -21.87117 | 40310 ft | 466 kts | 273° |
| 2026-05-04 16:22 | 54.07014 | -22.14667 | 40311 ft | 466 kts | 273° |
| 2026-05-04 16:23 | 54.07751 | -22.47713 | 40320 ft | 466 kts | 273° |
| 2026-05-04 16:25 | 54.08397 | -22.80719 | 40325 ft | 465 kts | 272° |
| 2026-05-04 16:26 | 54.09037 | -23.19311 | 40326 ft | 465 kts | 272° |
| 2026-05-04 16:28 | 54.09418 | -23.46859 | 40335 ft | 465 kts | 272° |
| 2026-05-04 16:29 | 54.09845 | -23.85355 | 40341 ft | 465 kts | 271° |
| 2026-05-04 16:31 | 54.10076 | -24.12886 | 40342 ft | 465 kts | 271° |
| 2026-05-04 16:32 | 54.10269 | -24.45846 | 40346 ft | 465 kts | 271° |
| 2026-05-04 16:33 | 54.10342 | -24.66019 | 40349 ft | 465 kts | 271° |
| 2026-05-04 16:34 | 54.10377 | -24.82546 | 40349 ft | 465 kts | 271° |
| 2026-05-04 16:35 | 54.10380 | -25.15630 | 40354 ft | 465 kts | 270° |
| 2026-05-04 16:36 | 54.10347 | -25.32093 | 40357 ft | 465 kts | 270° |
| 2026-05-04 16:37 | 54.10292 | -25.48636 | 40357 ft | 465 kts | 270° |
| 2026-05-04 16:38 | 54.10183 | -25.70620 | 40356 ft | 465 kts | 270° |
| 2026-05-04 16:39 | 54.09990 | -25.98193 | 40357 ft | 465 kts | 270° |
| 2026-05-04 16:40 | 54.09791 | -26.20228 | 40357 ft | 465 kts | 270° |
| 2026-05-04 16:41 | 54.09485 | -26.47711 | 40363 ft | 465 kts | 269° |
| 2026-05-04 16:43 | 54.09116 | -26.75254 | 40366 ft | 465 kts | 269° |
| 2026-05-04 16:43 | 54.08864 | -26.91799 | 40360 ft | 466 kts | 269° |
| 2026-05-04 16:45 | 54.08291 | -27.24943 | 40362 ft | 466 kts | 269° |
| 2026-05-04 16:46 | 54.07745 | -27.52539 | 40363 ft | 467 kts | 269° |
| 2026-05-04 16:47 | 54.07261 | -27.74640 | 40361 ft | 467 kts | 269° |
| 2026-05-04 16:48 | 54.06739 | -27.96663 | 40361 ft | 467 kts | 268° |
| 2026-05-04 16:49 | 54.06174 | -28.18773 | 40359 ft | 468 kts | 268° |
| 2026-05-04 16:50 | 54.05568 | -28.40896 | 40362 ft | 468 kts | 268° |
| 2026-05-04 16:51 | 54.05087 | -28.57491 | 40355 ft | 468 kts | 268° |
| 2026-05-04 16:52 | 54.04410 | -28.79622 | 40366 ft | 468 kts | 268° |
| 2026-05-04 16:53 | 54.03874 | -28.96225 | 40366 ft | 468 kts | 268° |
| 2026-05-04 16:54 | 54.03126 | -29.18333 | 40366 ft | 468 kts | 268° |
| 2026-05-04 16:55 | 54.01928 | -29.51473 | 40368 ft | 469 kts | 267° |
| 2026-05-04 16:56 | 54.00857 | -29.79156 | 40370 ft | 469 kts | 267° |
| 2026-05-04 16:57 | 54.00184 | -29.95747 | 40374 ft | 469 kts | 267° |
| 2026-05-04 16:58 | 54.00601 | -30.17831 | 40371 ft | 468 kts | 276° |
| 2026-05-04 17:00 | 54.02027 | -30.50932 | 40374 ft | 468 kts | 275° |
| 2026-05-04 17:01 | 54.03016 | -30.78473 | 40374 ft | 468 kts | 274° |
| 2026-05-04 17:02 | 54.03770 | -31.00579 | 40373 ft | 468 kts | 274° |
| 2026-05-04 17:03 | 54.04309 | -31.17150 | 40375 ft | 467 kts | 274° |
| 2026-05-04 17:03 | 54.04825 | -31.33732 | 40379 ft | 468 kts | 274° |
| 2026-05-04 17:04 | 54.05477 | -31.55851 | 40379 ft | 468 kts | 274° |
| 2026-05-04 17:05 | 54.06089 | -31.77960 | 40379 ft | 467 kts | 274° |
| 2026-05-04 17:06 | 54.06520 | -31.94531 | 40378 ft | 467 kts | 274° |
| 2026-05-04 17:07 | 54.06884 | -32.09241 | 40376 ft | 467 kts | 274° |
| 2026-05-04 17:07 | 54.07187 | -32.22090 | 40375 ft | 467 kts | 274° |
| 2026-05-04 17:08 | 54.07558 | -32.38666 | 40375 ft | 466 kts | 274° |
| 2026-05-04 17:09 | 54.07792 | -32.49707 | 40384 ft | 466 kts | 274° |
| 2026-05-04 17:09 | 54.08017 | -32.60748 | 40384 ft | 466 kts | 274° |
| 2026-05-04 17:10 | 54.08533 | -32.88342 | 40383 ft | 466 kts | 273° |
| 2026-05-04 17:11 | 54.08721 | -32.99388 | 40375 ft | 465 kts | 273° |
| 2026-05-04 17:12 | 54.08984 | -33.15834 | 40377 ft | 465 kts | 273° |
| 2026-05-04 17:13 | 54.09373 | -33.43350 | 40380 ft | 465 kts | 273° |
| 2026-05-04 17:14 | 54.09638 | -33.65362 | 40371 ft | 464 kts | 273° |
| 2026-05-04 17:15 | 54.09810 | -33.81817 | 40376 ft | 463 kts | 273° |